Tapso, Argentina
Current Conditions -  °F | °C
As of 11:00 PM on Wednesday 22 Oct 2014 (Local Time) from SANT Reporting Station
Scattered Clouds Scattered Clouds  
Wind Chill: 27°   Ceiling: Unl
Heat Index: 28°   Visibility: 5mi
Dew Point: 17°   Wind: 7mph
Humidity: 54%   Direction: 320°NW
Pressure: 29.94"   Gusts: NA
Location:  28.41°S, 65.09°W
Report Text: SANT 230200Z 32006KT 8000 FEW045 SCT20027/17 Q1014
Loading
Personal Weather Stations






























Interactive Weather Map
Tropical Storm Tracking
New forecast layout! Learn more

10-Day Weather Forecast

Advertisements
Track Severe Weather on mobile